createdAt,value
2023-02-08T11:44:04.264Z,15.50
2023-02-08T11:45:06.350Z,15.40
2023-02-08T11:46:10.187Z,15.30
2023-02-08T11:47:14.017Z,16.10
2023-02-08T11:48:10.011Z,13.60
2023-02-08T11:49:18.507Z,13.90
2023-02-08T11:50:07.132Z,13.90
2023-02-08T11:51:04.154Z,13.90
2023-02-08T11:52:11.595Z,13.90
2023-02-08T11:53:04.418Z,12.60
2023-02-08T11:54:04.288Z,12.50
2023-02-08T11:55:04.492Z,12.60
2023-02-08T11:56:13.410Z,13.20
2023-02-08T11:57:04.474Z,13.20
2023-02-08T11:58:04.335Z,12.60
2023-02-08T11:59:04.453Z,12.60
2023-02-08T12:00:04.394Z,11.20
2023-02-08T12:01:04.368Z,10.60
2023-02-08T12:06:53.105Z,9.60
2023-02-08T12:07:54.690Z,10.40
2023-02-08T12:08:53.272Z,11.40
2023-02-08T12:09:53.169Z,10.60
2023-02-08T12:14:06.668Z,10.70
2023-02-08T12:15:06.353Z,9.60
2023-02-08T12:16:06.324Z,11.00
2023-02-08T12:19:03.203Z,10.60
2023-02-08T12:20:00.364Z,11.00
2023-02-08T12:24:47.770Z,11.50
2023-02-08T12:26:47.924Z,11.90
2023-02-08T12:30:14.786Z,11.40
2023-02-08T12:31:14.770Z,11.80
2023-02-08T12:35:33.026Z,12.30
2023-02-08T12:36:21.776Z,11.80
2023-02-08T12:39:56.236Z,12.80
2023-02-08T12:40:56.203Z,12.50
2023-02-08T12:44:02.432Z,12.80
2023-02-08T12:53:47.012Z,11.80
2023-02-08T12:54:47.210Z,12.90
2023-02-08T12:55:47.527Z,13.50
2023-02-08T12:57:00.376Z,12.80
2023-02-08T12:57:47.240Z,13.50
2023-02-08T12:58:47.257Z,13.80
2023-02-08T12:59:47.232Z,12.80
2023-02-08T13:00:47.180Z,13.20
2023-02-08T13:01:47.255Z,12.70
2023-02-08T13:02:47.300Z,13.30
2023-02-08T13:03:47.212Z,13.50
2023-02-08T13:07:52.837Z,12.30
2023-02-08T13:08:52.909Z,13.20
2023-02-08T13:09:53.035Z,13.90
2023-02-08T13:10:52.995Z,14.10
2023-02-08T13:11:53.052Z,13.30
2023-02-08T13:12:53.135Z,13.50
2023-02-08T13:13:53.070Z,13.00
2023-02-08T13:14:53.512Z,11.90
2023-02-08T13:15:53.052Z,13.30
2023-02-08T13:16:52.974Z,12.90
2023-02-08T13:17:53.042Z,12.40
2023-02-08T13:19:00.337Z,13.00
2023-02-08T13:20:00.117Z,12.70
2023-02-08T13:20:53.026Z,12.50
2023-02-08T13:21:53.070Z,12.40
2023-02-08T13:22:55.212Z,12.50
2023-02-08T13:23:53.447Z,12.50
2023-02-08T13:25:06.316Z,12.50
2023-02-08T13:25:53.144Z,13.10
2023-02-08T13:26:53.013Z,12.70
2023-02-08T13:27:53.040Z,12.50
2023-02-08T13:28:53.121Z,12.90
2023-02-08T13:29:54.184Z,12.50
2023-02-08T13:30:53.318Z,12.20
2023-02-08T13:31:53.029Z,12.20
2023-02-08T13:32:54.762Z,12.50
2023-02-08T13:34:01.356Z,12.60
2023-02-08T13:34:57.640Z,12.30
2023-02-08T13:35:55.724Z,12.20
2023-02-08T13:36:53.161Z,11.80
2023-02-08T13:37:53.146Z,12.00
2023-02-08T13:38:53.074Z,11.50
2023-02-08T13:39:55.026Z,11.30
2023-02-08T13:41:05.299Z,11.00
2023-02-08T13:41:53.196Z,11.40
2023-02-08T13:42:53.239Z,11.00
2023-02-08T13:43:53.171Z,10.80
2023-02-08T13:44:53.069Z,10.60
2023-02-08T13:45:55.303Z,11.40
2023-02-08T13:46:53.111Z,10.80
2023-02-08T13:47:54.805Z,10.70
2023-02-08T13:48:53.234Z,11.00
2023-02-08T13:49:53.595Z,10.80
2023-02-08T13:50:59.389Z,10.80
2023-02-08T13:51:56.061Z,10.50
2023-02-08T13:52:55.146Z,10.60
2023-02-08T13:53:53.312Z,9.90
2023-02-08T13:54:53.358Z,10.60
2023-02-08T13:55:56.451Z,11.20
2023-02-08T13:56:53.203Z,10.90
2023-02-08T13:57:53.176Z,10.30
2023-02-08T13:58:54.163Z,11.20
2023-02-08T14:00:00.490Z,10.30
2023-02-08T14:00:53.346Z,9.40
2023-02-08T14:01:53.375Z,10.50
2023-02-08T14:03:15.131Z,10.20
2023-02-08T14:03:53.199Z,10.10
2023-02-08T14:04:53.369Z,9.80
2023-02-08T14:06:53.320Z,10.30
2023-02-08T14:07:53.258Z,10.00
2023-02-08T14:08:53.163Z,9.90
2023-02-08T14:09:53.256Z,9.80
2023-02-08T14:10:53.301Z,9.70
2023-02-08T14:11:53.283Z,10.30
2023-02-08T14:12:53.321Z,10.30
2023-02-08T14:13:53.254Z,10.00
2023-02-08T14:14:53.649Z,11.20
2023-02-08T14:15:53.240Z,10.90
2023-02-08T14:16:53.242Z,9.80
2023-02-08T14:17:53.336Z,10.50
2023-02-08T14:18:53.399Z,10.40
2023-02-08T14:19:53.236Z,10.40
2023-02-08T14:20:53.298Z,10.80
2023-02-08T14:21:53.214Z,10.30
2023-02-08T14:22:53.179Z,10.50
2023-02-08T14:23:53.234Z,11.00
2023-02-08T14:24:53.283Z,10.20
2023-02-08T14:25:53.261Z,10.90
2023-02-08T14:26:53.353Z,10.90
2023-02-08T14:27:53.379Z,11.30
2023-02-08T14:28:53.321Z,10.30
2023-02-08T14:29:53.347Z,11.10
2023-02-08T14:30:53.258Z,10.90
2023-02-08T14:31:53.441Z,10.20
2023-02-08T14:32:53.363Z,11.00
2023-02-08T14:33:53.268Z,10.30
2023-02-08T14:34:53.340Z,10.90
2023-02-08T14:35:53.355Z,10.00
2023-02-08T14:36:53.254Z,10.60
